sensor_id;sensor_type;location;lat;lon;timestamp;P1;durP1;ratioP1;P2;durP2;ratioP2
3735;SDS011;1883;48.202;16.310;2024-01-07T00:00:32;1.70;;;0.50;;
3735;SDS011;1883;48.202;16.310;2024-01-07T00:03:00;3.37;;;1.90;;
3735;SDS011;1883;48.202;16.310;2024-01-07T00:05:27;3.23;;;0.90;;
3735;SDS011;1883;48.202;16.310;2024-01-07T00:07:53;3.33;;;1.77;;
3735;SDS011;1883;48.202;16.310;2024-01-07T00:10:21;2.10;;;0.70;;
3735;SDS011;1883;48.202;16.310;2024-01-07T00:12:49;4.73;;;1.37;;
3735;SDS011;1883;48.202;16.310;2024-01-07T00:15:17;1.90;;;0.60;;
3735;SDS011;1883;48.202;16.310;2024-01-07T00:17:46;2.13;;;0.87;;
3735;SDS011;1883;48.202;16.310;2024-01-07T00:20:14;1.77;;;0.50;;
3735;SDS011;1883;48.202;16.310;2024-01-07T00:22:41;1.80;;;0.50;;
3735;SDS011;1883;48.202;16.310;2024-01-07T00:25:16;10.50;;;1.27;;
3735;SDS011;1883;48.202;16.310;2024-01-07T00:27:44;1.77;;;0.50;;
3735;SDS011;1883;48.202;16.310;2024-01-07T00:30:11;2.00;;;0.80;;
3735;SDS011;1883;48.202;16.310;2024-01-07T00:32:39;1.70;;;0.50;;
3735;SDS011;1883;48.202;16.310;2024-01-07T00:35:08;2.63;;;0.70;;
3735;SDS011;1883;48.202;16.310;2024-01-07T00:37:35;1.77;;;0.50;;
3735;SDS011;1883;48.202;16.310;2024-01-07T00:40:03;2.57;;;0.90;;
3735;SDS011;1883;48.202;16.310;2024-01-07T00:42:33;1.80;;;0.60;;
3735;SDS011;1883;48.202;16.310;2024-01-07T00:45:02;3.60;;;1.73;;
3735;SDS011;1883;48.202;16.310;2024-01-07T00:47:31;1.70;;;0.50;;
3735;SDS011;1883;48.202;16.310;2024-01-07T00:49:58;2.20;;;0.80;;
3735;SDS011;1883;48.202;16.310;2024-01-07T00:52:27;1.70;;;0.50;;
3735;SDS011;1883;48.202;16.310;2024-01-07T00:54:56;4.33;;;2.50;;
3735;SDS011;1883;48.202;16.310;2024-01-07T00:57:24;2.10;;;0.93;;
3735;SDS011;1883;48.202;16.310;2024-01-07T00:59:51;1.83;;;0.60;;
3735;SDS011;1883;48.202;16.310;2024-01-07T01:02:18;1.77;;;0.50;;
3735;SDS011;1883;48.202;16.310;2024-01-07T01:04:45;3.90;;;0.80;;
3735;SDS011;1883;48.202;16.310;2024-01-07T01:07:13;1.80;;;0.60;;
3735;SDS011;1883;48.202;16.310;2024-01-07T01:09:42;1.73;;;0.50;;
3735;SDS011;1883;48.202;16.310;2024-01-07T01:12:11;1.80;;;0.50;;
3735;SDS011;1883;48.202;16.310;2024-01-07T01:14:38;1.80;;;0.60;;
3735;SDS011;1883;48.202;16.310;2024-01-07T01:17:05;1.80;;;0.77;;
3735;SDS011;1883;48.202;16.310;2024-01-07T01:19:34;1.70;;;0.50;;
3735;SDS011;1883;48.202;16.310;2024-01-07T01:22:03;1.70;;;0.50;;
3735;SDS011;1883;48.202;16.310;2024-01-07T01:24:45;1.73;;;0.50;;
3735;SDS011;1883;48.202;16.310;2024-01-07T01:27:14;1.80;;;0.60;;
3735;SDS011;1883;48.202;16.310;2024-01-07T01:29:41;1.70;;;0.50;;
3735;SDS011;1883;48.202;16.310;2024-01-07T01:32:09;1.60;;;0.50;;
3735;SDS011;1883;48.202;16.310;2024-01-07T01:34:37;1.70;;;0.50;;
3735;SDS011;1883;48.202;16.310;2024-01-07T01:37:04;1.70;;;0.60;;
3735;SDS011;1883;48.202;16.310;2024-01-07T01:39:30;1.80;;;0.60;;
3735;SDS011;1883;48.202;16.310;2024-01-07T01:41:59;2.33;;;0.70;;
3735;SDS011;1883;48.202;16.310;2024-01-07T01:44:26;1.90;;;0.80;;
3735;SDS011;1883;48.202;16.310;2024-01-07T01:46:53;2.00;;;0.67;;
3735;SDS011;1883;48.202;16.310;2024-01-07T01:49:22;1.70;;;0.60;;
3735;SDS011;1883;48.202;16.310;2024-01-07T01:51:50;1.70;;;0.50;;
3735;SDS011;1883;48.202;16.310;2024-01-07T01:54:18;1.70;;;0.60;;
3735;SDS011;1883;48.202;16.310;2024-01-07T01:56:45;1.83;;;0.60;;
3735;SDS011;1883;48.202;16.310;2024-01-07T01:59:15;1.60;;;0.50;;
3735;SDS011;1883;48.202;16.310;2024-01-07T02:01:42;2.37;;;0.63;;
3735;SDS011;1883;48.202;16.310;2024-01-07T02:04:09;1.93;;;0.77;;
3735;SDS011;1883;48.202;16.310;2024-01-07T02:06:37;1.80;;;0.70;;
3735;SDS011;1883;48.202;16.310;2024-01-07T02:09:04;1.60;;;0.50;;
3735;SDS011;1883;48.202;16.310;2024-01-07T02:11:31;1.70;;;0.50;;
3735;SDS011;1883;48.202;16.310;2024-01-07T02:13:58;5.00;;;1.33;;
3735;SDS011;1883;48.202;16.310;2024-01-07T02:16:26;1.67;;;0.40;;
3735;SDS011;1883;48.202;16.310;2024-01-07T02:18:53;1.63;;;0.50;;
3735;SDS011;1883;48.202;16.310;2024-01-07T02:21:20;1.63;;;0.50;;
3735;SDS011;1883;48.202;16.310;2024-01-07T02:23:47;1.70;;;0.60;;
3735;SDS011;1883;48.202;16.310;2024-01-07T02:26:16;1.67;;;0.50;;
3735;SDS011;1883;48.202;16.310;2024-01-07T02:28:44;1.60;;;0.50;;
3735;SDS011;1883;48.202;16.310;2024-01-07T02:31:14;3.50;;;0.80;;
3735;SDS011;1883;48.202;16.310;2024-01-07T02:33:41;3.03;;;1.10;;
3735;SDS011;1883;48.202;16.310;2024-01-07T02:36:08;1.90;;;0.70;;
3735;SDS011;1883;48.202;16.310;2024-01-07T02:38:35;2.20;;;1.07;;
3735;SDS011;1883;48.202;16.310;2024-01-07T02:41:02;1.70;;;0.50;;
3735;SDS011;1883;48.202;16.310;2024-01-07T02:43:31;1.60;;;0.50;;
3735;SDS011;1883;48.202;16.310;2024-01-07T02:45:58;1.90;;;0.70;;
3735;SDS011;1883;48.202;16.310;2024-01-07T02:48:25;1.63;;;0.50;;
3735;SDS011;1883;48.202;16.310;2024-01-07T02:50:52;2.90;;;1.00;;
3735;SDS011;1883;48.202;16.310;2024-01-07T02:53:20;1.70;;;0.50;;
3735;SDS011;1883;48.202;16.310;2024-01-07T02:55:47;1.97;;;0.73;;
3735;SDS011;1883;48.202;16.310;2024-01-07T02:58:14;4.33;;;2.00;;
3735;SDS011;1883;48.202;16.310;2024-01-07T03:00:43;1.77;;;0.63;;
3735;SDS011;1883;48.202;16.310;2024-01-07T03:03:10;1.63;;;0.50;;
3735;SDS011;1883;48.202;16.310;2024-01-07T03:05:38;1.70;;;0.70;;
3735;SDS011;1883;48.202;16.310;2024-01-07T03:08:05;2.17;;;0.70;;
3735;SDS011;1883;48.202;16.310;2024-01-07T03:10:32;1.63;;;0.50;;
3735;SDS011;1883;48.202;16.310;2024-01-07T03:13:00;1.70;;;0.50;;
3735;SDS011;1883;48.202;16.310;2024-01-07T03:15:28;1.70;;;0.50;;
3735;SDS011;1883;48.202;16.310;2024-01-07T03:17:58;1.60;;;0.50;;
3735;SDS011;1883;48.202;16.310;2024-01-07T03:20:25;1.63;;;0.50;;
3735;SDS011;1883;48.202;16.310;2024-01-07T03:22:52;1.60;;;0.50;;
3735;SDS011;1883;48.202;16.310;2024-01-07T03:25:23;1.63;;;0.50;;
3735;SDS011;1883;48.202;16.310;2024-01-07T03:27:50;1.63;;;0.50;;
3735;SDS011;1883;48.202;16.310;2024-01-07T03:30:18;1.80;;;0.70;;
3735;SDS011;1883;48.202;16.310;2024-01-07T03:32:46;1.70;;;0.60;;
3735;SDS011;1883;48.202;16.310;2024-01-07T03:35:17;2.77;;;0.97;;
3735;SDS011;1883;48.202;16.310;2024-01-07T03:37:44;2.53;;;1.23;;
3735;SDS011;1883;48.202;16.310;2024-01-07T03:40:11;1.60;;;0.50;;
3735;SDS011;1883;48.202;16.310;2024-01-07T03:42:38;1.80;;;0.63;;
3735;SDS011;1883;48.202;16.310;2024-01-07T03:45:06;1.80;;;0.63;;
3735;SDS011;1883;48.202;16.310;2024-01-07T03:47:33;1.60;;;0.50;;
3735;SDS011;1883;48.202;16.310;2024-01-07T03:50:01;2.00;;;0.90;;
3735;SDS011;1883;48.202;16.310;2024-01-07T03:52:30;3.90;;;1.97;;
3735;SDS011;1883;48.202;16.310;2024-01-07T03:54:58;2.10;;;0.70;;
3735;SDS011;1883;48.202;16.310;2024-01-07T03:57:25;1.70;;;0.60;;
3735;SDS011;1883;48.202;16.310;2024-01-07T03:59:52;1.70;;;0.70;;
3735;SDS011;1883;48.202;16.310;2024-01-07T04:02:19;1.70;;;0.50;;
3735;SDS011;1883;48.202;16.310;2024-01-07T04:04:46;1.60;;;0.50;;
3735;SDS011;1883;48.202;16.310;2024-01-07T04:07:13;1.70;;;0.50;;
3735;SDS011;1883;48.202;16.310;2024-01-07T04:09:43;1.60;;;0.50;;
3735;SDS011;1883;48.202;16.310;2024-01-07T04:12:10;17.50;;;7.37;;
3735;SDS011;1883;48.202;16.310;2024-01-07T04:14:37;17.83;;;7.87;;
3735;SDS011;1883;48.202;16.310;2024-01-07T04:17:04;22.70;;;8.43;;
3735;SDS011;1883;48.202;16.310;2024-01-07T04:19:33;20.97;;;8.07;;
3735;SDS011;1883;48.202;16.310;2024-01-07T04:22:02;14.90;;;7.23;;
3735;SDS011;1883;48.202;16.310;2024-01-07T04:24:29;19.03;;;8.10;;
3735;SDS011;1883;48.202;16.310;2024-01-07T04:26:58;18.27;;;7.43;;
3735;SDS011;1883;48.202;16.310;2024-01-07T04:29:25;23.43;;;9.87;;
3735;SDS011;1883;48.202;16.310;2024-01-07T04:31:52;23.63;;;8.00;;
3735;SDS011;1883;48.202;16.310;2024-01-07T04:34:18;24.93;;;9.23;;
3735;SDS011;1883;48.202;16.310;2024-01-07T04:36:45;19.47;;;8.60;;
3735;SDS011;1883;48.202;16.310;2024-01-07T04:39:13;25.60;;;9.03;;
3735;SDS011;1883;48.202;16.310;2024-01-07T04:41:40;20.10;;;8.60;;
3735;SDS011;1883;48.202;16.310;2024-01-07T04:44:08;20.27;;;7.87;;
3735;SDS011;1883;48.202;16.310;2024-01-07T04:46:37;15.60;;;6.90;;
3735;SDS011;1883;48.202;16.310;2024-01-07T04:49:04;12.60;;;5.70;;
3735;SDS011;1883;48.202;16.310;2024-01-07T04:51:32;18.23;;;8.00;;
3735;SDS011;1883;48.202;16.310;2024-01-07T04:53:59;14.40;;;6.17;;
3735;SDS011;1883;48.202;16.310;2024-01-07T04:56:26;14.10;;;6.40;;
3735;SDS011;1883;48.202;16.310;2024-01-07T04:58:53;18.77;;;7.67;;
3735;SDS011;1883;48.202;16.310;2024-01-07T05:01:22;3.20;;;1.13;;
3735;SDS011;1883;48.202;16.310;2024-01-07T05:03:49;1.70;;;0.60;;
3735;SDS011;1883;48.202;16.310;2024-01-07T05:06:16;1.70;;;0.50;;
3735;SDS011;1883;48.202;16.310;2024-01-07T05:08:43;1.50;;;0.40;;
3735;SDS011;1883;48.202;16.310;2024-01-07T05:11:10;1.60;;;0.50;;
3735;SDS011;1883;48.202;16.310;2024-01-07T05:13:37;1.70;;;0.60;;
3735;SDS011;1883;48.202;16.310;2024-01-07T05:16:05;1.67;;;0.60;;
3735;SDS011;1883;48.202;16.310;2024-01-07T05:18:34;6.03;;;2.20;;
3735;SDS011;1883;48.202;16.310;2024-01-07T05:21:01;1.60;;;0.50;;
3735;SDS011;1883;48.202;16.310;2024-01-07T05:23:28;2.40;;;1.37;;
3735;SDS011;1883;48.202;16.310;2024-01-07T05:25:55;1.60;;;0.47;;
3735;SDS011;1883;48.202;16.310;2024-01-07T05:28:22;7.30;;;1.70;;
3735;SDS011;1883;48.202;16.310;2024-01-07T05:30:49;1.70;;;0.60;;
3735;SDS011;1883;48.202;16.310;2024-01-07T05:33:16;3.00;;;1.47;;
3735;SDS011;1883;48.202;16.310;2024-01-07T05:38:52;1.50;;;0.40;;
3735;SDS011;1883;48.202;16.310;2024-01-07T05:41:36;1.70;;;0.60;;
3735;SDS011;1883;48.202;16.310;2024-01-07T05:44:07;2.05;;;0.60;;
3735;SDS011;1883;48.202;16.310;2024-01-07T05:46:34;1.63;;;0.50;;
3735;SDS011;1883;48.202;16.310;2024-01-07T05:49:04;1.60;;;0.50;;
3735;SDS011;1883;48.202;16.310;2024-01-07T05:51:39;1.70;;;0.60;;
3735;SDS011;1883;48.202;16.310;2024-01-07T05:54:09;1.80;;;0.80;;
3735;SDS011;1883;48.202;16.310;2024-01-07T05:56:38;1.63;;;0.60;;
3735;SDS011;1883;48.202;16.310;2024-01-07T05:59:07;1.60;;;0.50;;
3735;SDS011;1883;48.202;16.310;2024-01-07T06:01:34;1.60;;;0.50;;
3735;SDS011;1883;48.202;16.310;2024-01-07T06:04:01;1.97;;;0.70;;
3735;SDS011;1883;48.202;16.310;2024-01-07T06:06:29;1.60;;;0.50;;
3735;SDS011;1883;48.202;16.310;2024-01-07T06:08:57;1.70;;;0.70;;
3735;SDS011;1883;48.202;16.310;2024-01-07T06:11:31;4.10;;;0.80;;
3735;SDS011;1883;48.202;16.310;2024-01-07T06:13:58;1.60;;;0.50;;
3735;SDS011;1883;48.202;16.310;2024-01-07T06:16:25;2.57;;;0.70;;
3735;SDS011;1883;48.202;16.310;2024-01-07T06:18:52;1.60;;;0.50;;
3735;SDS011;1883;48.202;16.310;2024-01-07T06:21:19;1.80;;;0.63;;
3735;SDS011;1883;48.202;16.310;2024-01-07T06:23:47;1.60;;;0.40;;
3735;SDS011;1883;48.202;16.310;2024-01-07T06:26:16;1.60;;;0.50;;
3735;SDS011;1883;48.202;16.310;2024-01-07T06:28:43;1.70;;;0.60;;
3735;SDS011;1883;48.202;16.310;2024-01-07T06:31:10;1.60;;;0.50;;
3735;SDS011;1883;48.202;16.310;2024-01-07T06:33:37;2.50;;;0.90;;
3735;SDS011;1883;48.202;16.310;2024-01-07T06:36:11;1.52;;;0.50;;
3735;SDS011;1883;48.202;16.310;2024-01-07T06:38:42;1.80;;;0.77;;
3735;SDS011;1883;48.202;16.310;2024-01-07T06:41:09;1.60;;;0.40;;
3735;SDS011;1883;48.202;16.310;2024-01-07T06:43:39;1.50;;;0.50;;
3735;SDS011;1883;48.202;16.310;2024-01-07T06:46:06;1.60;;;0.50;;
3735;SDS011;1883;48.202;16.310;2024-01-07T06:48:33;3.80;;;1.27;;
3735;SDS011;1883;48.202;16.310;2024-01-07T06:51:00;1.53;;;0.50;;
3735;SDS011;1883;48.202;16.310;2024-01-07T06:53:28;1.80;;;0.73;;
3735;SDS011;1883;48.202;16.310;2024-01-07T06:55:55;1.50;;;0.50;;
3735;SDS011;1883;48.202;16.310;2024-01-07T06:58:22;1.60;;;0.50;;
3735;SDS011;1883;48.202;16.310;2024-01-07T07:00:52;1.60;;;0.50;;
3735;SDS011;1883;48.202;16.310;2024-01-07T07:03:22;1.80;;;0.70;;
3735;SDS011;1883;48.202;16.310;2024-01-07T07:05:49;1.60;;;0.50;;
3735;SDS011;1883;48.202;16.310;2024-01-07T07:08:16;1.60;;;0.60;;
3735;SDS011;1883;48.202;16.310;2024-01-07T07:10:44;1.70;;;0.50;;
3735;SDS011;1883;48.202;16.310;2024-01-07T07:13:11;3.07;;;0.90;;
3735;SDS011;1883;48.202;16.310;2024-01-07T07:15:39;1.80;;;0.67;;
3735;SDS011;1883;48.202;16.310;2024-01-07T07:18:07;2.13;;;0.93;;
3735;SDS011;1883;48.202;16.310;2024-01-07T07:20:34;2.63;;;1.47;;
3735;SDS011;1883;48.202;16.310;2024-01-07T07:23:01;5.10;;;1.37;;
3735;SDS011;1883;48.202;16.310;2024-01-07T07:25:29;1.80;;;0.63;;
3735;SDS011;1883;48.202;16.310;2024-01-07T07:27:59;2.77;;;1.30;;
3735;SDS011;1883;48.202;16.310;2024-01-07T07:30:30;3.20;;;2.03;;
3735;SDS011;1883;48.202;16.310;2024-01-07T07:32:58;1.60;;;0.50;;
3735;SDS011;1883;48.202;16.310;2024-01-07T07:35:46;1.70;;;0.50;;
3735;SDS011;1883;48.202;16.310;2024-01-07T07:38:20;4.33;;;1.40;;
3735;SDS011;1883;48.202;16.310;2024-01-07T07:40:57;5.87;;;1.87;;
3735;SDS011;1883;48.202;16.310;2024-01-07T07:43:38;1.60;;;0.50;;
3735;SDS011;1883;48.202;16.310;2024-01-07T07:46:18;1.88;;;0.80;;
3735;SDS011;1883;48.202;16.310;2024-01-07T07:48:47;1.60;;;0.50;;
3735;SDS011;1883;48.202;16.310;2024-01-07T07:51:16;1.50;;;0.50;;
3735;SDS011;1883;48.202;16.310;2024-01-07T07:53:57;1.60;;;0.50;;
3735;SDS011;1883;48.202;16.310;2024-01-07T07:56:25;2.67;;;1.97;;
3735;SDS011;1883;48.202;16.310;2024-01-07T07:59:09;1.60;;;0.50;;
3735;SDS011;1883;48.202;16.310;2024-01-07T08:01:37;1.50;;;0.50;;
3735;SDS011;1883;48.202;16.310;2024-01-07T08:04:18;1.70;;;0.60;;
3735;SDS011;1883;48.202;16.310;2024-01-07T08:06:50;1.80;;;0.70;;
3735;SDS011;1883;48.202;16.310;2024-01-07T08:09:19;1.63;;;0.50;;
3735;SDS011;1883;48.202;16.310;2024-01-07T08:11:55;1.97;;;0.70;;
3735;SDS011;1883;48.202;16.310;2024-01-07T08:14:23;2.30;;;0.80;;
3735;SDS011;1883;48.202;16.310;2024-01-07T08:16:57;1.60;;;0.50;;
3735;SDS011;1883;48.202;16.310;2024-01-07T08:19:42;1.70;;;0.70;;
3735;SDS011;1883;48.202;16.310;2024-01-07T08:22:32;2.20;;;0.90;;
3735;SDS011;1883;48.202;16.310;2024-01-07T08:25:13;1.70;;;0.70;;
3735;SDS011;1883;48.202;16.310;2024-01-07T08:27:47;4.67;;;1.03;;
3735;SDS011;1883;48.202;16.310;2024-01-07T08:30:28;1.60;;;0.60;;
3735;SDS011;1883;48.202;16.310;2024-01-07T08:36:13;1.60;;;0.40;;
3735;SDS011;1883;48.202;16.310;2024-01-07T08:52:23;1.50;;;0.47;;
3735;SDS011;1883;48.202;16.310;2024-01-07T08:54:59;1.60;;;0.50;;
3735;SDS011;1883;48.202;16.310;2024-01-07T08:57:43;2.20;;;1.23;;
3735;SDS011;1883;48.202;16.310;2024-01-07T09:01:06;1.60;;;0.83;;
3735;SDS011;1883;48.202;16.310;2024-01-07T09:03:57;1.80;;;0.90;;
3735;SDS011;1883;48.202;16.310;2024-01-07T09:11:57;2.07;;;0.70;;
3735;SDS011;1883;48.202;16.310;2024-01-07T09:14:41;1.53;;;0.50;;
3735;SDS011;1883;48.202;16.310;2024-01-07T09:17:28;1.60;;;0.50;;
3735;SDS011;1883;48.202;16.310;2024-01-07T09:20:12;1.60;;;0.50;;
3735;SDS011;1883;48.202;16.310;2024-01-07T09:22:51;1.73;;;0.73;;
3735;SDS011;1883;48.202;16.310;2024-01-07T09:25:28;1.80;;;0.73;;
3735;SDS011;1883;48.202;16.310;2024-01-07T09:32:10;2.17;;;1.03;;
3735;SDS011;1883;48.202;16.310;2024-01-07T09:34:52;1.53;;;0.40;;
3735;SDS011;1883;48.202;16.310;2024-01-07T11:41:53;2.00;;;0.97;;
3735;SDS011;1883;48.202;16.310;2024-01-07T11:44:26;1.70;;;0.60;;
3735;SDS011;1883;48.202;16.310;2024-01-07T11:47:03;1.80;;;0.70;;
3735;SDS011;1883;48.202;16.310;2024-01-07T11:49:52;1.60;;;0.50;;
3735;SDS011;1883;48.202;16.310;2024-01-07T11:52:33;1.57;;;0.50;;
3735;SDS011;1883;48.202;16.310;2024-01-07T11:55:10;1.60;;;0.50;;
3735;SDS011;1883;48.202;16.310;2024-01-07T12:01:44;1.50;;;0.50;;
3735;SDS011;1883;48.202;16.310;2024-01-07T12:04:32;3.40;;;1.03;;
3735;SDS011;1883;48.202;16.310;2024-01-07T12:07:17;1.50;;;0.50;;
3735;SDS011;1883;48.202;16.310;2024-01-07T12:10:14;1.90;;;0.87;;
3735;SDS011;1883;48.202;16.310;2024-01-07T12:36:01;5.30;;;1.87;;
3735;SDS011;1883;48.202;16.310;2024-01-07T12:38:49;1.57;;;0.50;;
3735;SDS011;1883;48.202;16.310;2024-01-07T12:41:31;4.10;;;1.20;;
3735;SDS011;1883;48.202;16.310;2024-01-07T12:44:04;1.60;;;0.50;;
3735;SDS011;1883;48.202;16.310;2024-01-07T12:46:54;1.60;;;0.50;;
3735;SDS011;1883;48.202;16.310;2024-01-07T12:49:24;1.60;;;0.40;;
3735;SDS011;1883;48.202;16.310;2024-01-07T12:51:54;1.60;;;0.50;;
3735;SDS011;1883;48.202;16.310;2024-01-07T12:54:36;1.67;;;0.53;;
3735;SDS011;1883;48.202;16.310;2024-01-07T12:57:09;2.40;;;0.83;;
3735;SDS011;1883;48.202;16.310;2024-01-07T12:59:58;1.60;;;0.50;;
3735;SDS011;1883;48.202;16.310;2024-01-07T13:02:27;2.27;;;1.07;;
3735;SDS011;1883;48.202;16.310;2024-01-07T13:05:05;1.70;;;0.70;;
3735;SDS011;1883;48.202;16.310;2024-01-07T13:07:34;1.60;;;0.50;;
3735;SDS011;1883;48.202;16.310;2024-01-07T13:10:06;2.40;;;1.13;;
3735;SDS011;1883;48.202;16.310;2024-01-07T13:12:43;1.90;;;0.70;;
3735;SDS011;1883;48.202;16.310;2024-01-07T13:15:14;6.20;;;1.97;;
3735;SDS011;1883;48.202;16.310;2024-01-07T13:17:43;2.73;;;1.23;;
3735;SDS011;1883;48.202;16.310;2024-01-07T13:20:16;3.73;;;1.57;;
3735;SDS011;1883;48.202;16.310;2024-01-07T13:22:47;1.70;;;0.50;;
3735;SDS011;1883;48.202;16.310;2024-01-07T13:25:20;1.60;;;0.50;;
3735;SDS011;1883;48.202;16.310;2024-01-07T13:27:51;7.43;;;1.90;;
3735;SDS011;1883;48.202;16.310;2024-01-07T13:30:24;1.73;;;0.63;;
3735;SDS011;1883;48.202;16.310;2024-01-07T13:33:05;1.90;;;0.60;;
3735;SDS011;1883;48.202;16.310;2024-01-07T13:35:48;2.30;;;0.80;;
3735;SDS011;1883;48.202;16.310;2024-01-07T13:38:18;1.53;;;0.50;;
3735;SDS011;1883;48.202;16.310;2024-01-07T13:40:47;1.70;;;0.50;;
3735;SDS011;1883;48.202;16.310;2024-01-07T13:43:30;2.03;;;1.03;;
3735;SDS011;1883;48.202;16.310;2024-01-07T13:46:03;2.13;;;1.08;;
3735;SDS011;1883;48.202;16.310;2024-01-07T13:48:35;1.80;;;0.67;;
3735;SDS011;1883;48.202;16.310;2024-01-07T13:51:16;1.90;;;0.70;;
3735;SDS011;1883;48.202;16.310;2024-01-07T13:53:44;1.60;;;0.50;;
3735;SDS011;1883;48.202;16.310;2024-01-07T13:56:12;2.07;;;0.70;;
3735;SDS011;1883;48.202;16.310;2024-01-07T13:58:40;1.70;;;0.50;;
3735;SDS011;1883;48.202;16.310;2024-01-07T14:01:15;1.60;;;0.47;;
3735;SDS011;1883;48.202;16.310;2024-01-07T14:03:44;1.70;;;0.50;;
3735;SDS011;1883;48.202;16.310;2024-01-07T14:09:09;1.60;;;0.50;;
3735;SDS011;1883;48.202;16.310;2024-01-07T14:11:39;1.80;;;0.60;;
3735;SDS011;1883;48.202;16.310;2024-01-07T14:14:10;1.70;;;0.50;;
3735;SDS011;1883;48.202;16.310;2024-01-07T14:16:40;1.70;;;0.50;;
3735;SDS011;1883;48.202;16.310;2024-01-07T14:19:09;1.60;;;0.50;;
3735;SDS011;1883;48.202;16.310;2024-01-07T14:25:00;1.70;;;0.50;;
3735;SDS011;1883;48.202;16.310;2024-01-07T14:28:07;1.70;;;0.50;;
3735;SDS011;1883;48.202;16.310;2024-01-07T14:30:51;1.93;;;0.80;;
3735;SDS011;1883;48.202;16.310;2024-01-07T14:33:27;2.43;;;1.13;;
3735;SDS011;1883;48.202;16.310;2024-01-07T14:36:18;1.63;;;0.40;;
3735;SDS011;1883;48.202;16.310;2024-01-07T14:39:05;1.80;;;0.67;;
3735;SDS011;1883;48.202;16.310;2024-01-07T14:41:46;1.70;;;0.50;;
3735;SDS011;1883;48.202;16.310;2024-01-07T14:44:19;1.70;;;0.50;;
3735;SDS011;1883;48.202;16.310;2024-01-07T14:46:50;2.33;;;1.07;;
3735;SDS011;1883;48.202;16.310;2024-01-07T14:49:26;1.80;;;0.70;;
3735;SDS011;1883;48.202;16.310;2024-01-07T14:52:06;1.70;;;0.50;;
3735;SDS011;1883;48.202;16.310;2024-01-07T14:54:35;1.90;;;0.80;;
3735;SDS011;1883;48.202;16.310;2024-01-07T14:57:05;1.60;;;0.43;;
3735;SDS011;1883;48.202;16.310;2024-01-07T14:59:41;1.90;;;0.77;;
3735;SDS011;1883;48.202;16.310;2024-01-07T15:02:22;1.73;;;0.60;;
3735;SDS011;1883;48.202;16.310;2024-01-07T15:04:52;1.67;;;0.60;;
3735;SDS011;1883;48.202;16.310;2024-01-07T15:07:42;1.60;;;0.50;;
3735;SDS011;1883;48.202;16.310;2024-01-07T15:10:17;2.30;;;1.00;;
3735;SDS011;1883;48.202;16.310;2024-01-07T15:12:44;1.70;;;0.50;;
3735;SDS011;1883;48.202;16.310;2024-01-07T15:15:13;1.80;;;0.70;;
3735;SDS011;1883;48.202;16.310;2024-01-07T15:17:41;2.60;;;0.83;;
3735;SDS011;1883;48.202;16.310;2024-01-07T15:20:10;5.70;;;1.47;;
3735;SDS011;1883;48.202;16.310;2024-01-07T15:22:53;1.90;;;0.70;;
3735;SDS011;1883;48.202;16.310;2024-01-07T15:25:29;1.70;;;0.50;;
3735;SDS011;1883;48.202;16.310;2024-01-07T15:28:26;1.90;;;0.60;;
3735;SDS011;1883;48.202;16.310;2024-01-07T15:31:08;2.00;;;0.90;;
3735;SDS011;1883;48.202;16.310;2024-01-07T15:33:49;2.10;;;0.70;;
3735;SDS011;1883;48.202;16.310;2024-01-07T15:36:21;2.33;;;1.00;;
3735;SDS011;1883;48.202;16.310;2024-01-07T15:38:50;2.47;;;0.83;;
3735;SDS011;1883;48.202;16.310;2024-01-07T15:44:09;5.83;;;1.47;;
3735;SDS011;1883;48.202;16.310;2024-01-07T15:46:44;1.90;;;0.77;;
3735;SDS011;1883;48.202;16.310;2024-01-07T15:49:13;1.90;;;0.83;;
3735;SDS011;1883;48.202;16.310;2024-01-07T15:51:55;1.60;;;0.50;;
3735;SDS011;1883;48.202;16.310;2024-01-07T15:54:23;21.30;;;1.57;;
3735;SDS011;1883;48.202;16.310;2024-01-07T16:02:58;6.07;;;1.47;;
3735;SDS011;1883;48.202;16.310;2024-01-07T16:05:33;6.33;;;1.20;;
3735;SDS011;1883;48.202;16.310;2024-01-07T16:08:03;2.20;;;1.13;;
3735;SDS011;1883;48.202;16.310;2024-01-07T16:10:34;1.67;;;0.50;;
3735;SDS011;1883;48.202;16.310;2024-01-07T16:13:05;1.70;;;0.50;;
3735;SDS011;1883;48.202;16.310;2024-01-07T16:18:36;1.63;;;0.53;;
3735;SDS011;1883;48.202;16.310;2024-01-07T16:21:03;2.40;;;1.58;;
3735;SDS011;1883;48.202;16.310;2024-01-07T16:24:04;3.50;;;1.97;;
3735;SDS011;1883;48.202;16.310;2024-01-07T16:27:05;1.60;;;0.50;;
3735;SDS011;1883;48.202;16.310;2024-01-07T16:29:38;1.90;;;0.80;;
3735;SDS011;1883;48.202;16.310;2024-01-07T16:32:19;1.87;;;0.63;;
3735;SDS011;1883;48.202;16.310;2024-01-07T16:35:02;1.70;;;0.50;;
3735;SDS011;1883;48.202;16.310;2024-01-07T16:37:31;1.60;;;0.40;;
3735;SDS011;1883;48.202;16.310;2024-01-07T16:40:03;7.70;;;1.07;;
3735;SDS011;1883;48.202;16.310;2024-01-07T16:42:37;2.28;;;0.80;;
3735;SDS011;1883;48.202;16.310;2024-01-07T16:45:06;1.90;;;0.60;;
3735;SDS011;1883;48.202;16.310;2024-01-07T16:47:37;1.60;;;0.50;;
3735;SDS011;1883;48.202;16.310;2024-01-07T16:53:27;1.80;;;0.60;;
3735;SDS011;1883;48.202;16.310;2024-01-07T16:55:57;1.80;;;0.60;;
3735;SDS011;1883;48.202;16.310;2024-01-07T16:58:27;1.70;;;0.43;;
3735;SDS011;1883;48.202;16.310;2024-01-07T17:01:13;1.60;;;0.50;;
3735;SDS011;1883;48.202;16.310;2024-01-07T17:03:43;6.90;;;3.33;;
3735;SDS011;1883;48.202;16.310;2024-01-07T17:09:09;2.10;;;0.80;;
3735;SDS011;1883;48.202;16.310;2024-01-07T17:11:36;1.90;;;0.70;;
3735;SDS011;1883;48.202;16.310;2024-01-07T17:14:12;2.07;;;0.70;;
3735;SDS011;1883;48.202;16.310;2024-01-07T17:16:39;1.70;;;0.50;;
3735;SDS011;1883;48.202;16.310;2024-01-07T17:19:09;2.00;;;0.83;;
3735;SDS011;1883;48.202;16.310;2024-01-07T17:22:28;2.20;;;0.80;;
3735;SDS011;1883;48.202;16.310;2024-01-07T17:25:36;2.20;;;0.70;;
3735;SDS011;1883;48.202;16.310;2024-01-07T17:28:36;1.70;;;0.50;;
3735;SDS011;1883;48.202;16.310;2024-01-07T17:31:57;2.00;;;0.80;;
3735;SDS011;1883;48.202;16.310;2024-01-07T17:55:05;2.00;;;0.70;;
3735;SDS011;1883;48.202;16.310;2024-01-07T17:57:56;5.50;;;1.80;;
3735;SDS011;1883;48.202;16.310;2024-01-07T18:03:24;1.77;;;0.50;;
3735;SDS011;1883;48.202;16.310;2024-01-07T18:06:09;1.85;;;0.50;;
3735;SDS011;1883;48.202;16.310;2024-01-07T18:08:39;1.70;;;0.50;;
3735;SDS011;1883;48.202;16.310;2024-01-07T18:11:11;1.80;;;0.60;;
3735;SDS011;1883;48.202;16.310;2024-01-07T18:13:58;1.70;;;0.50;;
3735;SDS011;1883;48.202;16.310;2024-01-07T18:23:44;1.77;;;0.50;;
3735;SDS011;1883;48.202;16.310;2024-01-07T18:26:27;4.35;;;1.00;;
3735;SDS011;1883;48.202;16.310;2024-01-07T18:29:02;2.20;;;0.90;;
3735;SDS011;1883;48.202;16.310;2024-01-07T18:31:38;1.80;;;0.50;;
3735;SDS011;1883;48.202;16.310;2024-01-07T18:34:10;1.80;;;0.60;;
3735;SDS011;1883;48.202;16.310;2024-01-07T18:36:46;1.80;;;0.50;;
3735;SDS011;1883;48.202;16.310;2024-01-07T18:39:32;1.77;;;0.50;;
3735;SDS011;1883;48.202;16.310;2024-01-07T18:42:04;1.70;;;0.50;;
3735;SDS011;1883;48.202;16.310;2024-01-07T18:44:36;2.63;;;1.05;;
3735;SDS011;1883;48.202;16.310;2024-01-07T18:47:19;2.10;;;0.95;;
3735;SDS011;1883;48.202;16.310;2024-01-07T18:50:33;1.80;;;0.50;;
3735;SDS011;1883;48.202;16.310;2024-01-07T18:53:03;3.20;;;1.25;;
3735;SDS011;1883;48.202;16.310;2024-01-07T18:58:58;4.57;;;2.10;;
3735;SDS011;1883;48.202;16.310;2024-01-07T19:01:31;1.70;;;0.50;;
3735;SDS011;1883;48.202;16.310;2024-01-07T19:04:11;3.65;;;1.48;;
3735;SDS011;1883;48.202;16.310;2024-01-07T19:06:57;1.85;;;0.60;;
3735;SDS011;1883;48.202;16.310;2024-01-07T19:10:10;2.00;;;0.70;;
3735;SDS011;1883;48.202;16.310;2024-01-07T19:15:40;5.43;;;2.27;;
3735;SDS011;1883;48.202;16.310;2024-01-07T19:18:24;1.90;;;0.50;;
3735;SDS011;1883;48.202;16.310;2024-01-07T19:21:13;1.90;;;0.70;;
3735;SDS011;1883;48.202;16.310;2024-01-07T19:24:02;1.80;;;0.50;;
3735;SDS011;1883;48.202;16.310;2024-01-07T19:26:56;1.80;;;0.50;;
3735;SDS011;1883;48.202;16.310;2024-01-07T19:29:44;1.90;;;0.50;;
3735;SDS011;1883;48.202;16.310;2024-01-07T19:32:39;1.80;;;0.50;;
3735;SDS011;1883;48.202;16.310;2024-01-07T19:37:59;1.90;;;0.50;;
3735;SDS011;1883;48.202;16.310;2024-01-07T19:40:43;1.90;;;0.60;;